Time;durP1;ratioP1;P1;durP2;ratioP2;P2;SDS_P1;SDS_P2;PMS_P1;PMS_P2;Temp;Humidity;BMP_temperature;BMP_pressure;BME280_temperature;BME280_humidity;BME280_pressure;Samples;Min_cycle;Max_cycle;Signal;HPM_P1;HPM_P2
2022/11/06 00:02:23;;;;;;;23.00;18.23;;;6.70;99.90;;;;;;5057032;28;20483;-85
2022/11/06 00:04:50;;;;;;;21.67;18.40;;;6.60;99.90;;;;;;5065135;28;20449;-85
2022/11/06 00:07:17;;;;;;;23.67;18.77;;;6.50;99.90;;;;;;5072454;28;20445;-84
2022/11/06 00:09:43;;;;;;;20.27;18.17;;;6.50;99.90;;;;;;5075404;28;20457;-85
2022/11/06 00:12:10;;;;;;;23.53;18.77;;;6.40;99.90;;;;;;5067824;28;20449;-85
2022/11/06 00:14:37;;;;;;;23.03;19.67;;;6.40;99.90;;;;;;5069464;28;20444;-85
2022/11/06 00:17:04;;;;;;;24.10;20.73;;;6.50;99.90;;;;;;5055261;28;20440;-85
2022/11/06 00:19:30;;;;;;;23.57;18.90;;;6.40;99.90;;;;;;5053880;28;20468;-85
2022/11/06 00:21:57;;;;;;;22.23;18.77;;;6.50;99.90;;;;;;5053818;28;20944;-85
2022/11/06 00:24:25;;;;;;;24.13;20.23;;;6.50;99.90;;;;;;5054122;28;20536;-86
2022/11/06 00:26:52;;;;;;;21.47;17.60;;;6.50;99.90;;;;;;5053318;28;20448;-85
2022/11/06 00:29:18;;;;;;;20.57;18.23;;;6.60;99.90;;;;;;5053790;28;20456;-86
2022/11/06 00:31:45;;;;;;;21.07;18.80;;;6.50;99.90;;;;;;5053709;28;20448;-87
2022/11/06 00:34:12;;;;;;;22.67;18.30;;;6.60;99.90;;;;;;5052810;28;20465;-87
2022/11/06 00:36:39;;;;;;;22.00;19.03;;;6.60;99.90;;;;;;5053307;28;20448;-86
2022/11/06 00:39:06;;;;;;;23.40;19.40;;;6.60;99.90;;;;;;5053135;28;20644;-87
2022/11/06 00:41:34;;;;;;;23.53;19.60;;;6.60;99.90;;;;;;5055161;28;20452;-87
2022/11/06 00:44:02;;;;;;;24.87;20.07;;;6.50;99.90;;;;;;5056532;28;20578;-86
2022/11/06 00:46:29;;;;;;;22.83;18.93;;;6.40;99.90;;;;;;5056797;28;20495;-87
2022/11/06 00:48:56;;;;;;;25.13;19.67;;;6.40;99.90;;;;;;5058416;28;20444;-85
2022/11/06 00:51:26;;;;;;;23.70;19.77;;;6.30;99.90;;;;;;5061650;28;20448;-86
2022/11/06 00:53:57;;;;;;;21.97;18.97;;;6.30;99.90;;;;;;5057279;28;20460;-86
2022/11/06 00:56:25;;;;;;;24.33;20.50;;;6.20;99.90;;;;;;5056263;28;20452;-86
2022/11/06 00:58:53;;;;;;;21.03;18.67;;;6.20;99.90;;;;;;5056009;28;21002;-85
2022/11/06 01:01:23;;;;;;;23.70;20.27;;;6.20;99.90;;;;;;5056503;28;20452;-86
2022/11/06 01:03:54;;;;;;;21.10;18.77;;;6.20;99.90;;;;;;5056398;28;20488;-86
2022/11/06 01:06:24;;;;;;;23.90;18.63;;;6.20;99.90;;;;;;5056895;28;20449;-86
2022/11/06 01:08:51;;;;;;;25.90;20.87;;;6.10;99.90;;;;;;5056677;28;20960;-85
2022/11/06 01:11:21;;;;;;;22.50;19.13;;;6.10;99.90;;;;;;5057150;28;20937;-85
2022/11/06 01:13:50;;;;;;;27.40;18.90;;;6.20;99.90;;;;;;5102173;22;20512;-85
2022/11/06 01:16:19;;;;;;;23.93;19.73;;;6.10;99.90;;;;;;5073549;28;20622;-88
2022/11/06 01:18:46;;;;;;;19.80;17.70;;;6.10;99.90;;;;;;5056263;28;20443;-85
2022/11/06 01:21:15;;;;;;;29.37;18.67;;;6.00;99.90;;;;;;5056185;28;20454;-85
2022/11/06 01:23:43;;;;;;;20.63;18.33;;;5.90;99.90;;;;;;5055964;28;20492;-85
2022/11/06 01:26:12;;;;;;;25.30;19.40;;;5.90;99.90;;;;;;5056089;28;20972;-85
2022/11/06 01:28:39;;;;;;;22.67;17.77;;;5.90;99.90;;;;;;5055692;28;20449;-86
2022/11/06 01:31:08;;;;;;;24.67;20.23;;;5.80;99.90;;;;;;5055859;28;20456;-85
2022/11/06 01:33:36;;;;;;;22.73;19.30;;;5.80;99.90;;;;;;5058546;28;20460;-85
2022/11/06 01:36:03;;;;;;;22.97;19.03;;;5.80;99.90;;;;;;5071968;28;20983;-85
2022/11/06 01:38:30;;;;;;;26.63;19.10;;;5.70;99.90;;;;;;5062790;28;20964;-85
2022/11/06 01:40:57;;;;;;;22.77;20.00;;;5.70;99.90;;;;;;5073013;28;20449;-85
2022/11/06 01:43:42;;;;;;;25.73;20.00;;;5.70;99.90;;;;;;5071633;28;20492;-85
2022/11/06 01:46:10;;;;;;;23.00;19.27;;;5.80;99.90;;;;;;5057468;28;20933;-85
2022/11/06 01:48:40;;;;;;;25.33;18.87;;;5.70;99.90;;;;;;5060740;28;20455;-85
2022/11/06 01:51:07;;;;;;;23.03;19.77;;;5.60;99.90;;;;;;5056005;28;20972;-86
2022/11/06 01:53:35;;;;;;;28.60;20.03;;;5.60;99.90;;;;;;5055354;28;20472;-85
2022/11/06 01:56:06;;;;;;;32.33;21.93;;;5.60;99.90;;;;;;5055848;28;20445;-85
2022/11/06 01:58:36;;;;;;;29.70;22.23;;;5.60;99.90;;;;;;5055200;28;20455;-87
2022/11/06 02:01:03;;;;;;;30.63;20.07;;;5.70;99.90;;;;;;5057491;28;20449;-85
2022/11/06 02:03:30;;;;;;;29.80;21.70;;;5.60;99.90;;;;;;5055345;28;20489;-85
2022/11/06 02:05:59;;;;;;;27.63;20.40;;;5.60;99.90;;;;;;5055314;28;20448;-85
2022/11/06 02:08:26;;;;;;;27.47;20.90;;;5.60;99.90;;;;;;5055686;28;20944;-85
2022/11/06 02:10:53;;;;;;;27.13;20.93;;;5.60;99.90;;;;;;5058411;28;20444;-85
2022/11/06 02:13:32;;;;;;;27.73;21.40;;;5.60;99.90;;;;;;5064307;28;20468;-85
2022/11/06 02:16:08;;;;;;;25.63;19.90;;;5.50;99.90;;;;;;5055131;28;20455;-85
2022/11/06 02:19:13;;;;;;;26.17;19.40;;;5.60;99.90;;;;;;5055067;28;20447;-86
2022/11/06 02:22:25;;;;;;;25.77;21.40;;;5.60;99.90;;;;;;4993212;28;20598;-85
2022/11/06 02:25:13;;;;;;;24.30;19.60;;;5.60;99.90;;;;;;4973780;28;20484;-86
2022/11/06 02:27:45;;;;;;;25.93;19.63;;;5.60;99.90;;;;;;5047428;28;20457;-85
2022/11/06 02:30:14;;;;;;;28.97;19.87;;;5.50;99.90;;;;;;5054786;28;20516;-86
2022/11/06 02:32:44;;;;;;;25.77;19.40;;;5.60;99.90;;;;;;5054398;28;20483;-85
2022/11/06 02:35:26;;;;;;;27.33;19.60;;;5.50;99.90;;;;;;5054422;28;20852;-85
2022/11/06 02:37:58;;;;;;;26.13;20.30;;;5.50;99.90;;;;;;5054313;28;20861;-85
2022/11/06 02:40:31;;;;;;;24.13;19.90;;;5.60;99.90;;;;;;5054637;28;20866;-85
2022/11/06 02:43:02;;;;;;;23.80;19.03;;;5.60;99.90;;;;;;5054512;28;21001;-85
2022/11/06 02:45:30;;;;;;;28.87;20.00;;;5.60;99.90;;;;;;5054205;28;20536;-85
2022/11/06 02:48:01;;;;;;;29.00;18.40;;;5.60;99.90;;;;;;5055110;28;20452;-86
2022/11/06 02:50:32;;;;;;;25.00;19.37;;;5.60;99.90;;;;;;5060627;28;20455;-85
2022/11/06 02:53:04;;;;;;;24.20;20.20;;;5.60;99.90;;;;;;5061281;28;20459;-85
2022/11/06 02:55:35;;;;;;;26.13;20.53;;;5.60;99.90;;;;;;5055051;28;20455;-85
2022/11/06 02:58:08;;;;;;;24.90;19.97;;;5.50;99.90;;;;;;5054227;28;20445;-86
2022/11/06 03:00:37;;;;;;;22.80;19.00;;;5.50;99.90;;;;;;5063057;28;20452;-85
2022/11/06 03:03:07;;;;;;;25.60;21.50;;;5.50;99.90;;;;;;5070431;28;20500;-85
2022/11/06 03:05:38;;;;;;;21.53;17.50;;;5.40;99.90;;;;;;5064191;28;20448;-85
2022/11/06 03:08:10;;;;;;;27.67;17.70;;;5.40;99.90;;;;;;5068364;28;20447;-85
2022/11/06 03:10:43;;;;;;;20.30;18.23;;;5.40;99.90;;;;;;5062441;28;20448;-85
2022/11/06 03:13:17;;;;;;;23.40;19.00;;;5.40;99.90;;;;;;5069648;28;20444;-85
2022/11/06 03:15:52;;;;;;;26.90;18.30;;;5.40;99.90;;;;;;5077456;28;20456;-85
2022/11/06 03:18:27;;;;;;;19.37;17.17;;;5.40;99.90;;;;;;5076999;28;20441;-86
2022/11/06 03:21:00;;;;;;;22.37;17.10;;;5.30;99.90;;;;;;5078246;28;20468;-85
2022/11/06 03:23:33;;;;;;;20.10;17.10;;;5.30;99.90;;;;;;5078783;28;20483;-88
2022/11/06 03:26:08;;;;;;;20.57;17.70;;;5.30;99.90;;;;;;5079286;28;20417;-87
2022/11/06 03:28:39;;;;;;;18.40;15.87;;;5.20;99.90;;;;;;5070920;28;20436;-86
2022/11/06 03:31:11;;;;;;;17.07;15.27;;;5.20;99.90;;;;;;5058007;28;20454;-85
2022/11/06 03:33:43;;;;;;;15.17;13.50;;;5.10;99.90;;;;;;5077215;28;20508;-87
2022/11/06 03:36:16;;;;;;;19.40;14.77;;;5.00;99.90;;;;;;5061489;28;20453;-85
2022/11/06 03:38:47;;;;;;;15.83;14.03;;;4.90;99.90;;;;;;5054188;28;20448;-85
2022/11/06 03:41:18;;;;;;;19.33;15.60;;;4.90;99.90;;;;;;5057838;28;20520;-86
2022/11/06 03:43:49;;;;;;;17.17;15.40;;;4.90;99.90;;;;;;5055533;28;20476;-85
2022/11/06 03:46:19;;;;;;;16.97;14.00;;;4.90;99.90;;;;;;5055839;28;20445;-86
2022/11/06 03:48:49;;;;;;;16.83;13.63;;;4.90;99.90;;;;;;5053691;28;20449;-85
2022/11/06 03:51:19;;;;;;;20.57;15.00;;;4.90;99.90;;;;;;5054352;28;20471;-85
2022/11/06 03:53:50;;;;;;;22.53;14.90;;;4.80;99.90;;;;;;5053524;28;20464;-86
2022/11/06 03:56:22;;;;;;;22.40;15.10;;;4.80;99.90;;;;;;5065317;28;20468;-85
2022/11/06 03:58:51;;;;;;;34.90;16.87;;;4.80;99.90;;;;;;5058824;28;20451;-85
2022/11/06 04:01:29;;;;;;;19.43;13.33;;;4.80;99.90;;;;;;5053495;28;20823;-85
2022/11/06 04:03:59;;;;;;;20.20;14.40;;;4.80;99.90;;;;;;5058574;28;20859;-86
2022/11/06 04:06:31;;;;;;;22.00;16.40;;;4.80;99.90;;;;;;5056491;28;20440;-85
2022/11/06 04:14:37;;;;;;;19.57;13.07;;;4.80;99.90;;;;;;5052255;28;20824;-85
2022/11/06 04:17:07;;;;;;;18.23;13.50;;;4.70;99.90;;;;;;5051793;28;20472;-85
2022/11/06 04:19:34;;;;;;;24.57;13.43;;;4.80;99.90;;;;;;5052649;28;21033;-86
2022/11/06 04:22:12;;;;;;;20.67;13.53;;;4.70;99.90;;;;;;5052918;28;20443;-85
2022/11/06 04:27:58;;;;;;;18.73;15.33;;;4.70;99.90;;;;;;5067008;28;20519;-85
2022/11/06 04:30:27;;;;;;;22.77;14.30;;;4.60;99.90;;;;;;5072981;28;20437;-85
2022/11/06 04:33:05;;;;;;;18.67;14.70;;;4.50;99.90;;;;;;5056086;28;20469;-85
2022/11/06 04:35:52;;;;;;;18.00;15.33;;;4.60;99.90;;;;;;5053367;28;20448;-85
2022/11/06 04:38:27;;;;;;;21.43;15.20;;;4.60;99.90;;;;;;5053488;28;20796;-85
2022/11/06 04:41:01;;;;;;;21.13;13.70;;;4.50;99.90;;;;;;5056052;28;20539;-85
2022/11/06 04:43:37;;;;;;;17.47;13.57;;;4.60;99.90;;;;;;5054368;28;20492;-85
2022/11/06 04:46:08;;;;;;;20.70;14.80;;;4.60;99.90;;;;;;5052758;28;20448;-86
2022/11/06 04:48:36;;;;;;;16.43;14.60;;;4.50;99.90;;;;;;5052439;28;20453;-86
2022/11/06 04:51:07;;;;;;;16.37;13.27;;;4.60;99.90;;;;;;5052667;28;20452;-86
2022/11/06 04:53:35;;;;;;;18.03;15.00;;;4.60;99.90;;;;;;5054044;28;20457;-85
2022/11/06 04:56:09;;;;;;;18.17;13.07;;;4.60;99.90;;;;;;5053992;28;20449;-86
2022/11/06 05:02:00;;;;;;;21.00;14.77;;;4.50;99.90;;;;;;5078292;28;20445;-88
2022/11/06 05:04:26;;;;;;;19.50;14.00;;;4.60;99.90;;;;;;5062400;28;21025;-86
2022/11/06 05:06:53;;;;;;;19.73;14.53;;;4.60;99.90;;;;;;5052965;28;20459;-85
2022/11/06 05:09:20;;;;;;;17.47;14.30;;;4.60;99.90;;;;;;5052838;28;20451;-85
2022/11/06 05:11:47;;;;;;;17.07;13.03;;;4.60;99.90;;;;;;5052876;28;20445;-85
2022/11/06 05:14:13;;;;;;;16.60;14.30;;;4.50;99.90;;;;;;5053286;28;20985;-84
2022/11/06 05:16:40;;;;;;;17.60;13.47;;;4.60;99.90;;;;;;5052928;28;20452;-85
2022/11/06 05:19:08;;;;;;;18.30;14.10;;;4.60;99.90;;;;;;5052883;28;20455;-85
2022/11/06 05:24:20;;;;;;;16.53;12.73;;;4.50;99.90;;;;;;5076871;28;20563;-86
2022/11/06 05:26:46;;;;;;;15.43;13.10;;;4.50;99.90;;;;;;5069540;28;20511;-85
2022/11/06 05:29:13;;;;;;;14.30;12.90;;;4.40;99.90;;;;;;5063329;28;20455;-84
2022/11/06 05:31:40;;;;;;;16.97;12.77;;;4.30;99.90;;;;;;5057245;28;20444;-84
2022/11/06 05:34:08;;;;;;;14.63;12.40;;;4.30;99.90;;;;;;5056268;28;20458;-85
2022/11/06 05:36:35;;;;;;;15.53;13.70;;;4.30;99.90;;;;;;5067180;28;20768;-84
2022/11/06 05:39:02;;;;;;;12.97;11.63;;;4.30;99.90;;;;;;5065064;28;20445;-85
2022/11/06 05:41:29;;;;;;;20.43;13.10;;;4.30;99.90;;;;;;5060453;28;20444;-86
2022/11/06 05:43:56;;;;;;;16.90;13.80;;;4.30;99.90;;;;;;5060773;28;20484;-85
2022/11/06 05:46:23;;;;;;;15.57;14.00;;;4.30;99.90;;;;;;5062961;28;20444;-85
2022/11/06 05:48:50;;;;;;;14.60;12.83;;;4.20;99.90;;;;;;5056480;28;20445;-84
2022/11/06 05:51:19;;;;;;;13.97;11.53;;;4.20;99.90;;;;;;5064708;28;20448;-84
2022/11/06 05:53:45;;;;;;;14.90;12.83;;;4.10;99.90;;;;;;5058677;28;20469;-84
2022/11/06 05:56:22;;;;;;;14.03;12.63;;;4.00;99.90;;;;;;5058297;28;20500;-85
2022/11/06 05:58:49;;;;;;;15.80;13.27;;;4.00;99.90;;;;;;5054775;28;20454;-84
2022/11/06 06:01:16;;;;;;;14.17;12.33;;;4.00;99.90;;;;;;5056696;28;20449;-85
2022/11/06 06:03:43;;;;;;;13.17;11.73;;;3.90;99.90;;;;;;5056082;28;20473;-85
2022/11/06 06:06:10;;;;;;;13.37;12.07;;;3.90;99.90;;;;;;5068517;28;20425;-85
2022/11/06 06:08:38;;;;;;;13.87;11.50;;;3.80;99.90;;;;;;5069420;28;20455;-84
2022/11/06 06:11:07;;;;;;;12.83;11.53;;;3.80;99.90;;;;;;5058233;28;20440;-85
2022/11/06 06:13:35;;;;;;;19.33;13.63;;;3.70;99.90;;;;;;5056007;28;20993;-84
2022/11/06 06:16:02;;;;;;;13.60;11.90;;;3.70;99.90;;;;;;5065602;28;20420;-85
2022/11/06 06:18:29;;;;;;;17.20;13.10;;;3.70;99.90;;;;;;5080373;28;20471;-84
2022/11/06 06:20:58;;;;;;;13.50;10.60;;;3.70;99.90;;;;;;5074146;28;20463;-84
2022/11/06 06:23:24;;;;;;;15.97;13.63;;;3.80;99.90;;;;;;5055587;28;20841;-85
2022/11/06 06:25:52;;;;;;;14.43;12.47;;;3.80;99.90;;;;;;5055056;28;20493;-85
2022/11/06 06:28:20;;;;;;;14.47;11.30;;;3.70;99.90;;;;;;5054385;28;20463;-83
2022/11/06 06:30:46;;;;;;;12.90;11.50;;;3.70;99.90;;;;;;5054320;28;20449;-85
2022/11/06 06:33:13;;;;;;;11.70;10.47;;;3.70;99.90;;;;;;5055349;28;20494;-86
2022/11/06 06:35:40;;;;;;;14.53;10.93;;;3.70;99.90;;;;;;5065574;28;20445;-86
2022/11/06 06:38:07;;;;;;;15.07;12.40;;;3.70;99.90;;;;;;5067646;28;20445;-86
2022/11/06 06:40:34;;;;;;;13.40;11.27;;;3.60;99.90;;;;;;5057090;28;20930;-85
2022/11/06 06:43:02;;;;;;;13.87;12.07;;;3.70;99.90;;;;;;5055210;28;21226;-86
2022/11/06 06:45:29;;;;;;;13.90;12.20;;;3.70;99.90;;;;;;5058944;28;20481;-86
2022/11/06 06:47:55;;;;;;;14.57;11.87;;;3.70;99.90;;;;;;5070761;28;20533;-86
2022/11/06 06:50:22;;;;;;;15.13;12.37;;;3.70;99.90;;;;;;5057306;28;20444;-85
2022/11/06 06:52:49;;;;;;;15.00;11.53;;;3.70;99.90;;;;;;5055008;28;20471;-85
2022/11/06 06:55:16;;;;;;;14.57;11.20;;;3.70;99.90;;;;;;5055244;28;20451;-85
2022/11/06 06:57:42;;;;;;;14.70;11.93;;;3.70;99.90;;;;;;5057924;28;20972;-85
2022/11/06 07:00:11;;;;;;;12.43;10.53;;;3.80;99.90;;;;;;5057695;28;20508;-84
2022/11/06 07:02:38;;;;;;;13.93;11.27;;;3.90;99.90;;;;;;5058821;28;20440;-85
2022/11/06 07:05:05;;;;;;;15.17;11.87;;;3.90;99.90;;;;;;5055314;28;20491;-85
2022/11/06 07:07:32;;;;;;;13.57;11.83;;;3.90;99.90;;;;;;5054275;28;20456;-85
2022/11/06 07:09:59;;;;;;;12.00;10.50;;;4.00;99.90;;;;;;5054488;28;20445;-85
2022/11/06 07:12:25;;;;;;;13.67;12.10;;;4.00;99.90;;;;;;5054533;28;20456;-85
2022/11/06 07:14:52;;;;;;;14.00;11.90;;;4.10;99.90;;;;;;5069138;28;20441;-82
2022/11/06 07:17:20;;;;;;;15.90;11.77;;;4.10;99.90;;;;;;5074303;28;20963;-83
2022/11/06 07:19:47;;;;;;;14.90;12.67;;;4.20;99.90;;;;;;5057949;28;20441;-83
2022/11/06 07:22:14;;;;;;;13.20;11.10;;;4.30;99.90;;;;;;5056803;28;20444;-83
2022/11/06 07:24:40;;;;;;;15.60;13.90;;;4.30;99.90;;;;;;5055823;28;20489;-83
2022/11/06 07:27:07;;;;;;;13.37;10.83;;;4.40;99.90;;;;;;5056412;28;20956;-83
2022/11/06 07:29:34;;;;;;;13.67;10.97;;;4.40;99.90;;;;;;5058654;28;20454;-82
2022/11/06 07:32:01;;;;;;;15.47;11.90;;;4.40;99.90;;;;;;5055213;28;20445;-83
2022/11/06 07:34:29;;;;;;;14.13;12.13;;;4.40;99.90;;;;;;5061183;28;20465;-83
2022/11/06 07:36:55;;;;;;;15.47;12.17;;;4.40;99.90;;;;;;5066458;28;20818;-85
2022/11/06 07:39:22;;;;;;;13.60;11.60;;;4.30;99.90;;;;;;5058834;28;20937;-82
2022/11/06 07:41:49;;;;;;;12.50;11.00;;;4.40;99.90;;;;;;5057669;28;20445;-83
2022/11/06 07:44:16;;;;;;;12.10;10.13;;;4.40;99.90;;;;;;5064771;28;20452;-81
2022/11/06 07:46:42;;;;;;;10.67;9.33;;;4.30;99.90;;;;;;5064333;28;20437;-83
2022/11/06 07:49:09;;;;;;;10.10;9.10;;;4.30;99.90;;;;;;5076066;28;20429;-80
2022/11/06 07:51:37;;;;;;;10.40;9.30;;;4.30;99.90;;;;;;5078329;28;20451;-82
2022/11/06 07:54:04;;;;;;;11.70;9.10;;;4.40;99.90;;;;;;5070238;28;20917;-83
2022/11/06 07:56:31;;;;;;;13.60;10.60;;;4.30;99.90;;;;;;5063760;28;20449;-83
2022/11/06 07:58:58;;;;;;;11.43;9.60;;;4.50;99.90;;;;;;5056725;28;20516;-83
2022/11/06 08:01:25;;;;;;;9.70;8.80;;;4.60;99.90;;;;;;5058202;28;20432;-83
2022/11/06 08:03:51;;;;;;;11.83;10.73;;;4.70;99.90;;;;;;5056793;28;20483;-83
2022/11/06 08:06:18;;;;;;;10.90;9.37;;;4.70;99.90;;;;;;5055567;28;20480;-83
2022/11/06 08:08:46;;;;;;;9.83;8.83;;;4.80;99.90;;;;;;5062183;28;20453;-84
2022/11/06 08:11:13;;;;;;;11.67;9.63;;;5.00;99.90;;;;;;5060001;28;20449;-82
2022/11/06 08:13:40;;;;;;;12.40;9.90;;;5.00;99.90;;;;;;5069871;28;20482;-85
2022/11/06 08:16:09;;;;;;;13.70;10.23;;;5.00;99.90;;;;;;5065827;28;20448;-84
2022/11/06 08:18:36;;;;;;;12.70;10.50;;;5.00;99.90;;;;;;5055275;28;20497;-84
2022/11/06 08:21:04;;;;;;;12.40;11.20;;;4.90;99.90;;;;;;5053785;28;20440;-82
2022/11/06 08:23:32;;;;;;;15.17;11.17;;;4.80;99.90;;;;;;5047649;28;20470;-83
2022/11/06 08:26:03;;;;;;;12.00;9.90;;;4.80;99.90;;;;;;5043553;28;20482;-83
2022/11/06 08:28:30;;;;;;;14.27;10.90;;;4.90;99.90;;;;;;5044478;28;20520;-84
2022/11/06 08:30:56;;;;;;;12.73;10.27;;;4.90;99.90;;;;;;5046084;28;20444;-83
2022/11/06 08:33:24;;;;;;;14.60;11.20;;;5.00;99.90;;;;;;5057042;28;20627;-83
2022/11/06 08:35:50;;;;;;;12.43;11.00;;;5.20;99.90;;;;;;5059365;28;20464;-84
2022/11/06 08:38:18;;;;;;;10.30;9.30;;;5.40;99.90;;;;;;5055705;28;20437;-83
2022/11/06 08:40:44;;;;;;;10.87;9.77;;;5.60;99.90;;;;;;5051366;28;20449;-84
2022/11/06 08:43:12;;;;;;;15.17;12.07;;;5.90;99.90;;;;;;5046784;28;20476;-84
2022/11/06 08:45:41;;;;;;;11.50;10.30;;;6.50;99.90;;;;;;5050562;28;20469;-84
2022/11/06 08:48:08;;;;;;;10.17;9.03;;;7.50;99.90;;;;;;5046790;28;20445;-86
2022/11/06 08:50:36;;;;;;;10.10;8.70;;;8.20;99.90;;;;;;5051822;28;20441;-86
2022/11/06 08:53:05;;;;;;;10.20;9.07;;;8.50;99.90;;;;;;5049340;28;20468;-86
2022/11/06 08:55:32;;;;;;;11.00;9.27;;;8.50;99.90;;;;;;5045913;28;20862;-86
2022/11/06 08:57:59;;;;;;;9.83;8.63;;;8.40;99.90;;;;;;5049104;28;20448;-86
2022/11/06 09:00:28;;;;;;;10.17;9.07;;;8.50;99.90;;;;;;5064621;28;20436;-86
2022/11/06 09:02:59;;;;;;;11.43;10.23;;;8.60;99.90;;;;;;5079018;28;20484;-88
2022/11/06 09:05:26;;;;;;;11.07;9.97;;;8.70;99.90;;;;;;5068222;28;20488;-86
2022/11/06 09:07:53;;;;;;;10.30;9.20;;;9.20;99.90;;;;;;5062530;28;20820;-86
2022/11/06 09:10:20;;;;;;;11.83;10.73;;;10.10;99.90;;;;;;5061722;28;20451;-87
2022/11/06 09:12:46;;;;;;;11.77;10.53;;;10.90;99.90;;;;;;5048934;28;20467;-86
2022/11/06 09:15:14;;;;;;;9.60;8.70;;;11.20;99.90;;;;;;5057193;28;20449;-86
2022/11/06 09:17:46;;;;;;;10.97;9.87;;;11.40;99.90;;;;;;5053992;28;20455;-86
2022/11/06 09:20:14;;;;;;;13.73;9.80;;;11.10;99.90;;;;;;5057399;28;20449;-86
2022/11/06 09:22:41;;;;;;;10.27;9.17;;;11.10;99.90;;;;;;5072499;28;20492;-87
2022/11/06 09:25:09;;;;;;;10.13;9.13;;;11.30;99.90;;;;;;5070193;28;20484;-86
2022/11/06 09:27:42;;;;;;;11.93;10.53;;;11.20;99.90;;;;;;5060878;28;20455;-86
2022/11/06 09:30:10;;;;;;;11.83;8.93;;;10.80;99.90;;;;;;5077002;28;20448;-85
2022/11/06 09:32:37;;;;;;;11.13;9.93;;;10.30;99.90;;;;;;5072746;28;20945;-86
2022/11/06 09:35:07;;;;;;;12.10;9.10;;;10.20;99.90;;;;;;5059611;28;20451;-86
2022/11/06 09:37:35;;;;;;;10.77;9.30;;;10.50;99.90;;;;;;5060280;28;20983;-86
2022/11/06 09:40:02;;;;;;;9.60;8.30;;;10.90;99.90;;;;;;5059076;28;20914;-86
2022/11/06 09:42:42;;;;;;;11.07;9.67;;;11.50;99.90;;;;;;5056785;28;20596;-85
2022/11/06 09:45:12;;;;;;;11.00;10.00;;;12.20;99.90;;;;;;5057763;28;20552;-86
2022/11/06 09:47:43;;;;;;;10.40;9.30;;;12.90;99.90;;;;;;5059478;28;20455;-85
2022/11/06 09:50:17;;;;;;;10.27;9.27;;;13.90;99.80;;;;;;5057185;28;20449;-86
2022/11/06 09:52:48;;;;;;;9.57;8.73;;;14.10;98.50;;;;;;5056100;28;20448;-86
2022/11/06 09:55:20;;;;;;;9.03;8.13;;;14.60;97.40;;;;;;5059680;28;20436;-86
2022/11/06 09:57:51;;;;;;;9.83;8.93;;;14.80;96.70;;;;;;5057173;28;20459;-87
2022/11/06 10:00:19;;;;;;;9.03;8.13;;;14.80;96.60;;;;;;5052504;28;20449;-87
2022/11/06 10:02:48;;;;;;;10.23;9.23;;;15.20;96.00;;;;;;5047648;28;20465;-87
2022/11/06 10:05:23;;;;;;;11.47;9.67;;;14.90;94.90;;;;;;5051468;28;20464;-86
2022/11/06 10:07:53;;;;;;;10.30;9.30;;;14.70;95.90;;;;;;5079331;28;20420;-88
2022/11/06 10:10:26;;;;;;;11.73;9.57;;;14.60;95.90;;;;;;5051703;28;20448;-86
2022/11/06 10:13:05;;;;;;;11.07;9.93;;;14.30;96.30;;;;;;5051341;28;20475;-86
2022/11/06 10:15:36;;;;;;;9.60;8.60;;;15.50;96.00;;;;;;5047583;28;20437;-87
2022/11/06 10:18:12;;;;;;;9.93;8.93;;;16.70;94.10;;;;;;5054838;28;20445;-88
2022/11/06 10:20:47;;;;;;;10.40;8.50;;;16.80;92.00;;;;;;5053026;28;20437;-88
2022/11/06 10:23:19;;;;;;;9.97;8.93;;;17.00;91.80;;;;;;5055374;28;20500;-86
2022/11/06 10:25:57;;;;;;;9.20;8.27;;;18.00;90.60;;;;;;5068811;28;20449;-87
2022/11/06 10:28:44;;;;;;;10.20;9.13;;;18.60;90.10;;;;;;5069317;28;20445;-88
2022/11/06 10:31:18;;;;;;;8.40;7.60;;;19.10;85.50;;;;;;5054797;28;20434;-87
2022/11/06 10:33:54;;;;;;;9.70;8.67;;;19.20;83.80;;;;;;5050106;28;20475;-87
2022/11/06 10:36:27;;;;;;;8.40;7.70;;;19.40;81.70;;;;;;5056306;28;20433;-86
2022/11/06 10:38:55;;;;;;;8.50;7.80;;;18.60;83.60;;;;;;5058200;28;20451;-86
2022/11/06 10:41:26;;;;;;;8.63;7.93;;;18.50;84.70;;;;;;5052444;28;20485;-87
2022/11/06 10:43:57;;;;;;;9.83;8.70;;;19.00;84.40;;;;;;5050953;28;20457;-89
2022/11/06 10:46:29;;;;;;;7.87;7.17;;;19.10;84.90;;;;;;5058339;28;20467;-87
2022/11/06 10:48:59;;;;;;;8.53;7.63;;;19.10;82.90;;;;;;5060143;28;20437;-86
2022/11/06 10:51:40;;;;;;;8.50;7.70;;;18.90;84.30;;;;;;5055360;28;20437;-86
2022/11/06 10:54:20;;;;;;;8.70;7.90;;;18.60;84.10;;;;;;5054230;28;20459;-85
2022/11/06 10:57:03;;;;;;;7.40;6.80;;;18.10;85.30;;;;;;5065775;28;20540;-86
2022/11/06 10:59:30;;;;;;;8.50;7.70;;;17.20;86.60;;;;;;5056821;28;20425;-87
2022/11/06 11:01:57;;;;;;;6.47;5.87;;;17.10;88.80;;;;;;5056101;28;20762;-86
2022/11/06 11:04:23;;;;;;;6.40;5.80;;;16.90;88.70;;;;;;5047851;28;20467;-87
2022/11/06 11:06:51;;;;;;;7.60;6.90;;;16.70;89.30;;;;;;5050757;28;20488;-87
2022/11/06 11:09:30;;;;;;;7.27;6.67;;;16.60;89.00;;;;;;5048573;28;20460;-85
2022/11/06 11:11:57;;;;;;;7.33;6.63;;;16.50;89.00;;;;;;5048268;28;20460;-79
2022/11/06 11:14:25;;;;;;;6.83;6.23;;;15.80;90.10;;;;;;5053993;28;20473;-80
2022/11/06 11:16:53;;;;;;;7.27;6.57;;;15.60;91.00;;;;;;5052499;28;20438;-78
2022/11/06 11:19:26;;;;;;;7.50;6.80;;;15.90;91.30;;;;;;5056055;28;20448;-79
2022/11/06 11:21:56;;;;;;;7.10;6.50;;;16.10;90.50;;;;;;5052650;28;20437;-78
2022/11/06 11:24:23;;;;;;;7.73;7.03;;;16.00;90.40;;;;;;5047573;28;20461;-81
2022/11/06 11:26:51;;;;;;;7.47;6.87;;;16.30;90.80;;;;;;5056143;28;20861;-87
2022/11/06 11:29:23;;;;;;;7.03;6.17;;;16.00;90.80;;;;;;5056450;28;20480;-85
2022/11/06 11:31:53;;;;;;;7.27;5.87;;;16.40;90.80;;;;;;5056765;28;20457;-88
2022/11/06 11:34:22;;;;;;;6.30;5.70;;;17.00;89.30;;;;;;5055354;28;20460;-86
2022/11/06 11:36:53;;;;;;;5.80;5.17;;;17.00;89.10;;;;;;5054434;28;20460;-86
2022/11/06 11:39:24;;;;;;;5.60;5.00;;;18.10;88.40;;;;;;5053969;28;20490;-85
2022/11/06 11:41:51;;;;;;;9.20;6.90;;;19.00;85.00;;;;;;5057253;28;20459;-87
2022/11/06 11:44:19;;;;;;;6.73;6.13;;;19.60;82.00;;;;;;5054657;28;20559;-86
2022/11/06 11:46:48;;;;;;;6.80;6.20;;;18.70;81.30;;;;;;5055783;28;20496;-86
2022/11/06 11:49:33;;;;;;;6.57;5.97;;;18.90;82.70;;;;;;5054458;28;20448;-87
2022/11/06 11:52:02;;;;;;;6.13;5.50;;;19.30;81.80;;;;;;5057506;28;20441;-86
2022/11/06 11:54:33;;;;;;;5.87;5.33;;;20.20;80.10;;;;;;5055134;28;20484;-88
2022/11/06 11:57:02;;;;;;;7.50;6.80;;;20.70;78.00;;;;;;5074471;28;20436;-86
2022/11/06 11:59:34;;;;;;;6.73;6.03;;;20.60;76.80;;;;;;5072393;28;20445;-86
2022/11/06 12:02:04;;;;;;;7.07;6.37;;;20.50;77.50;;;;;;5068780;28;20451;-86
2022/11/06 12:04:36;;;;;;;6.67;5.80;;;20.50;77.40;;;;;;5074066;28;20555;-86
2022/11/06 12:07:05;;;;;;;6.93;6.33;;;20.30;76.90;;;;;;5077207;28;20486;-86
2022/11/06 12:09:41;;;;;;;6.00;5.50;;;21.10;76.20;;;;;;5084500;28;20450;-86
2022/11/06 12:12:21;;;;;;;7.17;6.47;;;20.60;75.30;;;;;;5070810;28;20817;-86
2022/11/06 12:15:16;;;;;;;7.30;6.10;;;20.90;76.00;;;;;;5070616;28;20468;-86
2022/11/06 12:17:44;;;;;;;7.30;6.60;;;20.80;75.90;;;;;;5070861;28;20436;-86
2022/11/06 12:20:17;;;;;;;7.10;6.50;;;21.50;74.40;;;;;;5076165;28;20491;-87
2022/11/06 12:22:47;;;;;;;7.30;6.60;;;21.40;74.20;;;;;;5035630;28;20958;-87
2022/11/06 12:25:21;;;;;;;6.17;5.57;;;21.10;74.10;;;;;;5056381;28;20446;-87
2022/11/06 12:27:53;;;;;;;6.30;5.80;;;20.40;76.20;;;;;;5039707;28;20481;-86
2022/11/06 12:30:21;;;;;;;6.83;6.23;;;20.40;76.00;;;;;;5046410;28;20452;-85
2022/11/06 12:33:00;;;;;;;7.43;6.73;;;20.10;77.20;;;;;;5052594;28;20446;-85
2022/11/06 12:35:29;;;;;;;8.10;7.40;;;19.50;78.50;;;;;;5053100;28;20449;-87
2022/11/06 12:38:04;;;;;;;7.53;6.83;;;18.90;80.40;;;;;;5044955;28;20447;-86
2022/11/06 12:40:37;;;;;;;7.30;6.70;;;18.00;81.10;;;;;;5035405;28;20624;-86
2022/11/06 12:43:14;;;;;;;8.10;7.40;;;17.30;84.20;;;;;;5034215;28;20813;-87
2022/11/06 12:45:59;;;;;;;6.90;6.30;;;16.90;87.30;;;;;;5042344;28;20460;-86
2022/11/06 12:48:41;;;;;;;7.83;7.03;;;16.60;87.80;;;;;;5048878;28;20510;-86
2022/11/06 12:51:16;;;;;;;8.20;7.40;;;16.30;89.90;;;;;;5039038;28;20450;-86
2022/11/06 12:53:53;;;;;;;8.60;6.70;;;16.00;90.60;;;;;;5035057;28;20564;-86
2022/11/06 12:56:28;;;;;;;6.43;5.83;;;15.60;90.60;;;;;;5035472;28;20937;-87
2022/11/06 12:59:17;;;;;;;5.83;5.30;;;15.20;91.70;;;;;;5037600;28;20453;-86
2022/11/06 13:01:53;;;;;;;7.27;6.57;;;15.20;91.90;;;;;;5034001;28;20446;-86
2022/11/06 13:04:32;;;;;;;8.30;5.83;;;15.00;92.30;;;;;;5045373;28;20467;-87
2022/11/06 13:07:33;;;;;;;5.67;5.03;;;14.80;93.10;;;;;;5073392;28;21037;-87
2022/11/06 13:10:18;;;;;;;5.50;5.00;;;14.80;92.90;;;;;;5072199;28;20443;-87
2022/11/06 13:12:56;;;;;;;6.33;5.73;;;14.80;93.10;;;;;;5067757;28;20432;-87